Time;durP1;ratioP1;P1;durP2;ratioP2;P2;SDS_P1;SDS_P2;PMS_P1;PMS_P2;Temp;Humidity;BMP_temperature;BMP_pressure;BME280_temperature;BME280_humidity;BME280_pressure;Samples;Min_cycle;Max_cycle;Signal;HPM_P1;HPM_P2
2022/06/23 00:00:55;;;;;;;;;7.00;7.00;;;;;;;;5283221;28;8821;-71
2022/06/23 00:03:47;;;;;;;;;22.00;22.00;;;;;;;;5266978;28;8850;-71
2022/06/23 00:06:26;;;;;;;;;9.00;9.00;;;;;;;;5250068;28;8796;-71
2022/06/23 00:08:57;;;;;;;;;10.25;10.25;;;;;;;;5233900;28;8776;-71
2022/06/23 00:11:28;;;;;;;;;7.00;7.00;;;;;;;;5277982;28;8817;-71
2022/06/23 00:14:12;;;;;;;;;19.00;19.00;;;;;;;;5269139;28;9469;-71
2022/06/23 00:16:44;;;;;;;;;32.80;31.20;;;;;;;;5271041;28;8806;-71
2022/06/23 00:19:33;;;;;;;;;13.00;13.00;;;;;;;;5245877;28;8792;-71
2022/06/23 00:22:05;;;;;;;;;12.50;12.50;;;;;;;;5229207;28;8799;-71
2022/06/23 00:24:37;;;;;;;;;9.50;8.75;;;;;;;;5233198;28;8767;-71
2022/06/23 00:27:17;;;;;;;;;11.75;11.75;;;;;;;;5273597;28;8788;-71
2022/06/23 00:29:49;;;;;;;;;8.00;8.00;;;;;;;;5257208;27;8844;-70
2022/06/23 00:32:21;;;;;;;;;7.00;7.00;;;;;;;;5274962;27;8791;-70
2022/06/23 00:34:59;;;;;;;;;5.25;5.25;;;;;;;;5291930;27;8791;-70
2022/06/23 00:37:31;;;;;;;;;7.00;7.00;;;;;;;;5309867;27;8776;-70
2022/06/23 00:40:11;;;;;;;;;4.00;4.00;;;;;;;;5274613;27;8772;-70
2022/06/23 00:43:02;;;;;;;;;5.50;5.50;;;;;;;;5294032;27;8821;-69
2022/06/23 00:45:39;;;;;;;;;6.25;6.25;;;;;;;;5246451;28;8788;-70
2022/06/23 00:48:23;;;;;;;;;5.00;5.00;;;;;;;;5252909;28;8784;-70
2022/06/23 00:51:03;;;;;;;;;7.50;7.50;;;;;;;;5268722;28;8791;-70
2022/06/23 00:53:43;;;;;;;;;6.50;6.25;;;;;;;;5252089;28;8795;-70
2022/06/23 00:56:27;;;;;;;;;10.25;9.00;;;;;;;;5216318;28;8818;-71
2022/06/23 00:59:02;;;;;;;;;8.75;8.75;;;;;;;;5250333;28;8784;-70
2022/06/23 01:01:41;;;;;;;;;9.25;8.75;;;;;;;;5216439;28;8931;-70
2022/06/23 01:04:24;;;;;;;;;9.25;9.00;;;;;;;;5249364;28;8884;-70
2022/06/23 01:07:03;;;;;;;;;6.00;6.00;;;;;;;;5249458;28;8764;-70
2022/06/23 01:09:34;;;;;;;;;6.75;6.75;;;;;;;;5249787;27;8818;-70
2022/06/23 01:12:26;;;;;;;;;6.00;6.00;;;;;;;;5291290;27;9501;-70
2022/06/23 01:15:01;;;;;;;;;7.50;7.50;;;;;;;;5265402;27;8768;-72
2022/06/23 01:17:47;;;;;;;;;5.00;5.00;;;;;;;;5286702;28;8852;-70
2022/06/23 01:20:35;;;;;;;;;5.00;5.00;;;;;;;;5269909;28;8801;-72
2022/06/23 01:23:32;;;;;;;;;8.25;6.00;;;;;;;;5248772;28;9084;-72
2022/06/23 01:26:15;;;;;;;;;6.00;5.25;;;;;;;;5277822;28;8992;-71
2022/06/23 01:29:25;;;;;;;;;7.75;7.50;;;;;;;;5245245;28;8817;-71
2022/06/23 01:32:04;;;;;;;;;9.00;9.00;;;;;;;;5228205;28;8759;-71
2022/06/23 01:34:54;;;;;;;;;14.00;13.75;;;;;;;;5245345;28;8798;-71
2022/06/23 01:37:25;;;;;;;;;9.75;9.25;;;;;;;;5244879;28;8814;-71
2022/06/23 01:39:56;;;;;;;;;6.00;6.00;;;;;;;;5244884;28;8818;-71
2022/06/23 01:42:45;;;;;;;;;6.50;6.25;;;;;;;;5276462;28;9507;-71
2022/06/23 01:45:17;;;;;;;;;11.00;7.50;;;;;;;;5268494;28;8888;-71
2022/06/23 01:48:06;;;;;;;;;7.25;7.00;;;;;;;;5249008;28;8981;-70
2022/06/23 01:50:51;;;;;;;;;13.25;12.00;;;;;;;;5249257;28;8788;-71
2022/06/23 01:53:28;;;;;;;;;4.50;4.50;;;;;;;;5248812;28;8788;-70
2022/06/23 01:56:05;;;;;;;;;7.75;7.75;;;;;;;;5271770;28;8810;-71
2022/06/23 01:58:53;;;;;;;;;52.80;43.80;;;;;;;;5273603;28;8783;-71
2022/06/23 02:01:47;;;;;;;;;10.75;10.00;;;;;;;;5290640;28;8806;-72
2022/06/23 02:04:26;;;;;;;;;13.75;13.00;;;;;;;;5273575;28;8814;-71
2022/06/23 02:07:04;;;;;;;;;9.50;9.00;;;;;;;;5248473;28;8870;-71
2022/06/23 02:09:42;;;;;;;;;29.40;27.80;;;;;;;;5248629;28;8799;-71
2022/06/23 02:12:19;;;;;;;;;38.20;33.80;;;;;;;;5231941;28;9521;-72
2022/06/23 02:14:54;;;;;;;;;18.60;18.20;;;;;;;;5232042;28;8771;-72
2022/06/23 02:17:44;;;;;;;;;22.00;21.00;;;;;;;;5248723;28;8794;-72
2022/06/23 02:20:15;;;;;;;;;8.25;8.00;;;;;;;;5265171;28;8998;-72
2022/06/23 02:22:58;;;;;;;;;7.00;7.00;;;;;;;;5255920;28;8841;-73
2022/06/23 02:25:32;;;;;;;;;7.00;6.50;;;;;;;;5274865;28;8923;-72
2022/06/23 02:28:11;;;;;;;;;7.00;7.00;;;;;;;;5270274;28;8788;-73
2022/06/23 02:30:47;;;;;;;;;57.20;43.80;;;;;;;;5268753;28;8817;-72
2022/06/23 02:33:42;;;;;;;;;18.60;18.60;;;;;;;;5252418;28;8790;-72
2022/06/23 02:36:22;;;;;;;;;12.25;11.50;;;;;;;;5269478;28;8793;-72
2022/06/23 02:38:56;;;;;;;;;51.20;42.00;;;;;;;;5252303;28;8762;-71
2022/06/23 02:41:34;;;;;;;;;11.50;11.50;;;;;;;;5268894;28;8782;-72
2022/06/23 02:44:16;;;;;;;;;43.50;36.75;;;;;;;;5268673;28;8816;-72
2022/06/23 02:46:47;;;;;;;;;175.50;147.00;;;;;;;;5235346;28;8784;-71
2022/06/23 02:49:44;;;;;;;;;97.25;80.50;;;;;;;;5235061;28;8793;-72
2022/06/23 02:52:30;;;;;;;;;47.80;37.60;;;;;;;;5235172;28;9370;-71
2022/06/23 02:55:17;;;;;;;;;147.40;122.40;;;;;;;;5248319;28;8819;-72
2022/06/23 02:57:58;;;;;;;;;188.00;164.75;;;;;;;;5230990;28;9517;-72
2022/06/23 03:01:08;;;;;;;;;51.20;40.40;;;;;;;;5247303;28;10804;-72
2022/06/23 03:04:03;;;;;;;;;1.00;1.00;;;;;;;;5208822;28;8809;-72
2022/06/23 03:06:40;;;;;;;;;14.00;13.00;;;;;;;;5184704;28;8791;-72
2022/06/23 03:09:18;;;;;;;;;39.00;32.40;;;;;;;;5243638;28;8798;-72
2022/06/23 03:11:55;;;;;;;;;14.25;14.00;;;;;;;;5247249;28;9537;-72
2022/06/23 03:14:45;;;;;;;;;6.75;6.75;;;;;;;;5231072;28;8799;-72
2022/06/23 03:17:20;;;;;;;;;9.25;9.25;;;;;;;;5234748;28;8863;-71
2022/06/23 03:20:00;;;;;;;;;6.75;6.75;;;;;;;;5271806;28;8781;-71
2022/06/23 03:22:35;;;;;;;;;7.50;7.50;;;;;;;;5284330;28;8829;-72
2022/06/23 03:25:39;;;;;;;;;7.25;7.25;;;;;;;;5272535;28;8791;-72
2022/06/23 03:28:17;;;;;;;;;7.75;7.75;;;;;;;;5235031;27;8875;-73
2022/06/23 03:31:11;;;;;;;;;6.50;6.50;;;;;;;;5278900;27;8788;-72
2022/06/23 03:33:46;;;;;;;;;4.50;4.50;;;;;;;;5311628;27;8854;-71
2022/06/23 03:36:24;;;;;;;;;55.20;44.40;;;;;;;;5292948;27;8756;-72
2022/06/23 03:42:03;;;;;;;;;37.00;33.00;;;;;;;;5271777;28;8804;-72
2022/06/23 03:45:16;;;;;;;;;8.75;8.75;;;;;;;;5257346;28;8757;-71
2022/06/23 03:48:06;;;;;;;;;67.20;53.40;;;;;;;;5251881;28;8762;-71
2022/06/23 03:50:39;;;;;;;;;16.00;14.25;;;;;;;;5271734;27;8766;-72
2022/06/23 03:53:17;;;;;;;;;7.50;7.50;;;;;;;;5232316;28;8799;-71
2022/06/23 03:55:54;;;;;;;;;20.25;18.25;;;;;;;;5271060;28;8798;-70
2022/06/23 03:58:25;;;;;;;;;25.40;24.80;;;;;;;;5233621;28;9003;-71
2022/06/23 04:01:07;;;;;;;;;24.20;24.20;;;;;;;;5249772;28;8796;-71
2022/06/23 04:03:57;;;;;;;;;6.75;6.75;;;;;;;;5260516;28;8801;-72
2022/06/23 04:06:48;;;;;;;;;38.40;34.20;;;;;;;;5256777;28;8766;-71
2022/06/23 04:09:24;;;;;;;;;23.25;20.75;;;;;;;;5253895;28;8786;-72
2022/06/23 04:12:03;;;;;;;;;122.00;114.00;;;;;;;;5288759;28;9484;-72
2022/06/23 04:14:44;;;;;;;;;5.75;5.75;;;;;;;;5254601;28;8758;-71
2022/06/23 04:17:19;;;;;;;;;4.00;4.00;;;;;;;;5254108;28;8774;-71
2022/06/23 04:19:53;;;;;;;;;6.00;6.00;;;;;;;;5232789;28;8799;-70
2022/06/23 04:22:30;;;;;;;;;4.25;4.25;;;;;;;;5267035;28;8780;-71
2022/06/23 04:25:22;;;;;;;;;8.00;7.50;;;;;;;;5235743;28;9561;-69
2022/06/23 04:27:55;;;;;;;;;134.25;119.50;;;;;;;;5275265;27;8760;-70
2022/06/23 04:30:30;;;;;;;;;134.50;126.75;;;;;;;;5274900;27;8812;-70
2022/06/23 04:33:04;;;;;;;;;93.60;76.00;;;;;;;;5274689;27;8810;-70
2022/06/23 04:35:37;;;;;;;;;49.80;41.00;;;;;;;;5274932;27;8837;-70
2022/06/23 04:38:11;;;;;;;;;52.80;43.40;;;;;;;;5309498;27;8833;-69
2022/06/23 04:40:42;;;;;;;;;20.00;19.50;;;;;;;;5274649;27;8799;-67
2022/06/23 04:43:16;;;;;;;;;73.75;60.75;;;;;;;;5289225;27;8777;-66
2022/06/23 04:46:10;;;;;;;;;47.40;36.80;;;;;;;;5272275;28;10547;-68
2022/06/23 04:48:41;;;;;;;;;144.00;128.67;;;;;;;;5243496;27;8890;-67
2022/06/23 04:51:20;;;;;;;;;93.75;79.50;;;;;;;;5269994;28;9060;-67
2022/06/23 04:54:01;;;;;;;;;47.80;39.40;;;;;;;;5297574;27;8859;-67
2022/06/23 04:56:41;;;;;;;;;25.20;23.40;;;;;;;;5289820;27;9556;-66
2022/06/23 04:59:36;;;;;;;;;176.25;163.25;;;;;;;;5267089;28;8837;-67
2022/06/23 05:02:33;;;;;;;;;51.25;43.25;;;;;;;;5267174;28;11506;-67
2022/06/23 05:05:10;;;;;;;;;5.75;4.75;;;;;;;;5247595;27;8811;-68
2022/06/23 05:08:00;;;;;;;;;4.75;3.75;;;;;;;;5269446;27;8786;-68
2022/06/23 05:10:57;;;;;;;;;4.75;4.25;;;;;;;;5264320;28;8779;-69
2022/06/23 05:13:30;;;;;;;;;4.25;3.25;;;;;;;;5226985;28;9526;-68
2022/06/23 05:16:28;;;;;;;;;5.00;5.00;;;;;;;;5271688;28;9500;-68
2022/06/23 05:19:05;;;;;;;;;4.25;4.25;;;;;;;;5282737;28;9523;-67
2022/06/23 05:21:35;;;;;;;;;15.75;15.75;;;;;;;;5289173;27;8910;-67
2022/06/23 05:24:12;;;;;;;;;2.00;2.00;;;;;;;;5302869;28;8821;-68
2022/06/23 05:27:09;;;;;;;;;2.50;2.50;;;;;;;;5291073;27;8800;-67
2022/06/23 05:29:49;;;;;;;;;6.25;6.25;;;;;;;;5298493;27;8791;-68
2022/06/23 05:32:26;;;;;;;;;2.00;2.00;;;;;;;;5278673;27;9566;-67
2022/06/23 05:34:57;;;;;;;;;3.00;3.00;;;;;;;;5313626;27;8756;-68
2022/06/23 05:37:32;;;;;;;;;3.00;3.00;;;;;;;;5313677;27;8763;-68
2022/06/23 05:40:19;;;;;;;;;2.00;2.00;;;;;;;;5313721;27;8824;-68
2022/06/23 05:43:11;;;;;;;;;2.00;2.00;;;;;;;;5280700;27;8807;-68
2022/06/23 05:45:45;;;;;;;;;1.00;1.00;;;;;;;;5261453;27;8848;-68
2022/06/23 05:48:35;;;;;;;;;2.00;2.00;;;;;;;;5261351;27;8791;-68
2022/06/23 05:51:30;;;;;;;;;0.75;0.75;;;;;;;;5298019;27;9690;-68
2022/06/23 05:54:07;;;;;;;;;1.25;1.25;;;;;;;;5294767;27;9520;-68
2022/06/23 05:56:41;;;;;;;;;2.75;2.75;;;;;;;;5294911;27;8775;-68
2022/06/23 05:59:15;;;;;;;;;2.25;2.25;;;;;;;;5295054;27;8914;-68
2022/06/23 06:01:53;;;;;;;;;3.75;3.75;;;;;;;;5313254;27;8888;-68
2022/06/23 06:04:24;;;;;;;;;3.00;3.00;;;;;;;;5277734;27;8918;-68
2022/06/23 06:06:55;;;;;;;;;15.50;15.50;;;;;;;;5277804;27;8740;-68
2022/06/23 06:09:45;;;;;;;;;11.00;9.00;;;;;;;;5312939;27;9461;-68
2022/06/23 06:12:25;;;;;;;;;8.25;8.25;;;;;;;;5294638;27;8791;-68
2022/06/23 06:15:23;;;;;;;;;6.00;6.00;;;;;;;;5313054;27;8744;-67
2022/06/23 06:18:04;;;;;;;;;6.50;6.50;;;;;;;;5313186;27;9512;-67
2022/06/23 06:20:55;;;;;;;;;3.25;3.25;;;;;;;;5313136;27;8874;-67
2022/06/23 06:23:35;;;;;;;;;4.50;4.50;;;;;;;;5312589;27;9526;-67
2022/06/23 06:26:09;;;;;;;;;3.50;3.50;;;;;;;;5277924;27;8791;-68
2022/06/23 06:28:40;;;;;;;;;6.50;6.25;;;;;;;;5294484;27;8756;-67
2022/06/23 06:31:22;;;;;;;;;6.00;6.00;;;;;;;;5294372;27;8774;-68
2022/06/23 06:33:57;;;;;;;;;4.25;4.00;;;;;;;;5294771;27;8880;-68
2022/06/23 06:36:48;;;;;;;;;3.50;3.50;;;;;;;;5312595;27;9518;-68
2022/06/23 06:39:28;;;;;;;;;7.00;7.00;;;;;;;;5277506;27;8890;-68
2022/06/23 06:42:02;;;;;;;;;5.75;5.75;;;;;;;;5311658;27;8771;-68
2022/06/23 06:44:35;;;;;;;;;8.25;8.25;;;;;;;;5277098;27;8910;-68
2022/06/23 06:47:27;;;;;;;;;4.00;4.00;;;;;;;;5312366;27;8902;-68
2022/06/23 06:50:05;;;;;;;;;4.00;3.00;;;;;;;;5312340;27;8839;-68
2022/06/23 06:52:36;;;;;;;;;3.50;3.50;;;;;;;;5294106;27;8795;-68
2022/06/23 06:55:12;;;;;;;;;0.75;0.75;;;;;;;;5312139;27;8843;-68
2022/06/23 06:57:46;;;;;;;;;2.25;1.50;;;;;;;;5312192;27;8767;-68
2022/06/23 07:00:20;;;;;;;;;0.25;0.25;;;;;;;;5276855;27;8783;-68
2022/06/23 07:02:59;;;;;;;;;3.25;3.00;;;;;;;;5276827;27;8799;-68
2022/06/23 07:05:31;;;;;;;;;3.50;3.00;;;;;;;;5312474;27;9655;-68
2022/06/23 07:08:02;;;;;;;;;2.00;2.00;;;;;;;;5312542;27;8778;-67
2022/06/23 07:10:39;;;;;;;;;4.00;4.00;;;;;;;;5311864;27;8768;-67
2022/06/23 07:13:29;;;;;;;;;3.75;3.75;;;;;;;;5276584;27;8788;-67
2022/06/23 07:16:04;;;;;;;;;1.00;1.00;;;;;;;;5312292;27;8848;-67
2022/06/23 07:18:43;;;;;;;;;0.50;0.50;;;;;;;;5276786;27;8799;-68
2022/06/23 07:21:18;;;;;;;;;0.25;0.25;;;;;;;;5276383;27;8836;-67
2022/06/23 07:23:54;;;;;;;;;0.00;0.00;;;;;;;;5292808;27;9561;-67
2022/06/23 07:26:35;;;;;;;;;0.50;0.50;;;;;;;;5293338;27;8775;-67
2022/06/23 07:29:12;;;;;;;;;1.25;1.25;;;;;;;;5293512;27;8771;-69
2022/06/23 07:31:52;;;;;;;;;1.00;1.00;;;;;;;;5275983;27;8775;-68
2022/06/23 07:34:26;;;;;;;;;1.50;1.50;;;;;;;;5292709;27;8891;-68
2022/06/23 07:36:58;;;;;;;;;1.00;1.00;;;;;;;;5311264;27;8899;-68
2022/06/23 07:39:48;;;;;;;;;3.00;3.00;;;;;;;;5311718;27;8921;-68
2022/06/23 07:42:22;;;;;;;;;4.00;3.00;;;;;;;;5292880;27;8772;-68
2022/06/23 07:44:58;;;;;;;;;1.25;1.25;;;;;;;;5275815;27;8756;-68
2022/06/23 07:47:29;;;;;;;;;3.00;3.00;;;;;;;;5311455;27;8779;-67
2022/06/23 07:50:01;;;;;;;;;5.00;3.50;;;;;;;;5292716;27;8764;-68
2022/06/23 07:52:50;;;;;;;;;3.75;3.75;;;;;;;;5291640;27;8779;-67
2022/06/23 07:55:41;;;;;;;;;4.00;3.25;;;;;;;;5275687;27;8790;-68
2022/06/23 07:58:14;;;;;;;;;4.75;4.75;;;;;;;;5311218;27;8787;-67
2022/06/23 08:00:46;;;;;;;;;5.00;5.00;;;;;;;;5275340;27;8772;-67
2022/06/23 08:03:33;;;;;;;;;3.00;3.00;;;;;;;;5310682;27;8799;-67
2022/06/23 08:06:08;;;;;;;;;3.25;3.25;;;;;;;;5259013;27;8755;-68
2022/06/23 08:08:39;;;;;;;;;1.00;1.00;;;;;;;;5310982;27;8756;-68
2022/06/23 08:14:12;;;;;;;;;3.00;3.00;;;;;;;;5281348;27;8856;-68
2022/06/23 08:17:06;;;;;;;;;1.25;1.25;;;;;;;;5295052;27;8824;-68
2022/06/23 08:19:37;;;;;;;;;6.00;6.00;;;;;;;;5275053;27;8795;-68
2022/06/23 08:22:20;;;;;;;;;14.67;14.33;;;;;;;;5309944;27;8775;-68
2022/06/23 08:24:53;;;;;;;;;11.75;10.00;;;;;;;;5310406;27;8909;-68
2022/06/23 08:27:28;;;;;;;;;6.00;6.00;;;;;;;;5310543;27;8799;-68
2022/06/23 08:30:18;;;;;;;;;25.00;23.00;;;;;;;;5310256;27;8776;-68
2022/06/23 08:32:50;;;;;;;;;18.00;18.00;;;;;;;;5310646;27;8764;-68
2022/06/23 08:35:24;;;;;;;;;17.20;16.80;;;;;;;;5257960;27;8787;-68
2022/06/23 08:38:01;;;;;;;;;12.75;11.50;;;;;;;;5291869;27;8768;-68
2022/06/23 08:40:42;;;;;;;;;30.00;28.00;;;;;;;;5258036;27;8792;-69
2022/06/23 08:43:32;;;;;;;;;9.50;9.25;;;;;;;;5274960;27;8802;-68
2022/06/23 08:46:07;;;;;;;;;15.50;14.75;;;;;;;;5291917;27;8767;-68
2022/06/23 08:48:55;;;;;;;;;17.75;16.00;;;;;;;;5309987;27;8764;-69
2022/06/23 08:51:41;;;;;;;;;8.67;7.33;;;;;;;;5309751;27;8871;-69
2022/06/23 08:54:18;;;;;;;;;5.00;5.00;;;;;;;;5274463;27;11343;-68
2022/06/23 08:57:08;;;;;;;;;2.25;2.25;;;;;;;;5309875;27;9494;-68
2022/06/23 08:59:59;;;;;;;;;1.50;1.50;;;;;;;;5309850;27;8784;-68
2022/06/23 09:02:35;;;;;;;;;3.00;3.00;;;;;;;;5310986;27;8780;-68
2022/06/23 09:05:16;;;;;;;;;4.25;4.00;;;;;;;;5295857;27;8854;-68
2022/06/23 09:07:50;;;;;;;;;9.50;9.50;;;;;;;;5295322;27;8776;-69
2022/06/23 09:10:33;;;;;;;;;17.00;16.00;;;;;;;;5312629;27;8752;-69
2022/06/23 09:13:28;;;;;;;;;20.40;20.00;;;;;;;;5311439;27;8771;-67
2022/06/23 09:16:12;;;;;;;;;32.60;31.00;;;;;;;;5309291;27;8744;-69
2022/06/23 09:19:01;;;;;;;;;19.00;18.75;;;;;;;;5294014;27;8756;-67
2022/06/23 09:21:42;;;;;;;;;9.33;9.33;;;;;;;;5309772;27;8775;-68
2022/06/23 09:24:34;;;;;;;;;9.25;9.25;;;;;;;;5290833;27;11352;-68
2022/06/23 09:27:13;;;;;;;;;29.60;29.60;;;;;;;;5290790;27;8772;-68
2022/06/23 09:29:58;;;;;;;;;51.20;36.20;;;;;;;;5290920;27;8852;-68
2022/06/23 09:32:38;;;;;;;;;15.00;13.25;;;;;;;;5291097;27;8764;-67
2022/06/23 09:35:27;;;;;;;;;14.50;14.50;;;;;;;;5290187;27;8779;-69
2022/06/23 09:38:30;;;;;;;;;42.80;37.80;;;;;;;;5309594;27;8752;-69
2022/06/23 09:41:20;;;;;;;;;28.60;28.20;;;;;;;;5263899;27;8760;-69
2022/06/23 09:44:27;;;;;;;;;30.60;29.60;;;;;;;;5309720;27;8860;-68
2022/06/23 09:47:19;;;;;;;;;5.50;5.50;;;;;;;;5274122;27;8740;-68
2022/06/23 09:49:51;;;;;;;;;12.25;11.50;;;;;;;;5309426;27;8768;-69
2022/06/23 09:52:22;;;;;;;;;31.40;28.80;;;;;;;;5309014;27;8752;-69
2022/06/23 09:55:11;;;;;;;;;16.25;15.50;;;;;;;;5308873;27;8736;-68
2022/06/23 09:57:55;;;;;;;;;8.00;8.00;;;;;;;;5309163;27;9534;-69
2022/06/23 10:00:41;;;;;;;;;11.25;11.25;;;;;;;;5309177;27;8784;-68
2022/06/23 10:03:40;;;;;;;;;10.25;10.25;;;;;;;;5308998;27;8815;-68
2022/06/23 10:06:32;;;;;;;;;14.50;13.75;;;;;;;;5309277;27;8841;-68
2022/06/23 10:09:21;;;;;;;;;15.75;15.75;;;;;;;;5309519;27;9482;-68
2022/06/23 10:12:01;;;;;;;;;10.67;10.67;;;;;;;;5308924;27;8771;-68
2022/06/23 10:14:41;;;;;;;;;36.40;33.60;;;;;;;;5308997;27;8775;-68
2022/06/23 10:17:35;;;;;;;;;32.20;31.20;;;;;;;;5293204;27;8792;-68
2022/06/23 10:20:06;;;;;;;;;28.20;28.20;;;;;;;;5301970;27;8903;-68
2022/06/23 10:22:55;;;;;;;;;9.67;9.67;;;;;;;;5294173;27;8795;-68
2022/06/23 10:25:37;;;;;;;;;12.50;12.50;;;;;;;;5295052;27;8780;-68
2022/06/23 10:28:08;;;;;;;;;21.00;21.00;;;;;;;;5294695;27;8848;-68
2022/06/23 10:30:48;;;;;;;;;22.00;22.00;;;;;;;;5312611;27;9481;-68
2022/06/23 10:33:32;;;;;;;;;31.40;30.60;;;;;;;;5312484;27;12075;-68
2022/06/23 10:36:03;;;;;;;;;15.00;14.25;;;;;;;;5294288;27;8748;-68
2022/06/23 10:38:39;;;;;;;;;15.33;15.33;;;;;;;;5294257;27;8756;-68
2022/06/23 10:41:25;;;;;;;;;13.50;13.50;;;;;;;;5294015;27;8770;-68
2022/06/23 10:43:56;;;;;;;;;37.40;31.00;;;;;;;;5294180;27;8959;-68
2022/06/23 10:46:49;;;;;;;;;19.75;19.75;;;;;;;;5312389;27;8791;-68
2022/06/23 10:49:20;;;;;;;;;7.50;7.50;;;;;;;;5312273;27;8768;-68
2022/06/23 10:52:03;;;;;;;;;6.33;6.33;;;;;;;;5312277;27;8748;-68
2022/06/23 10:54:45;;;;;;;;;5.50;5.50;;;;;;;;5312381;27;8767;-68
2022/06/23 10:57:27;;;;;;;;;0.00;0.00;;;;;;;;5294135;27;8810;-68
2022/06/23 11:00:10;;;;;;;;;1.00;1.00;;;;;;;;5293990;27;8834;-69
2022/06/23 11:03:00;;;;;;;;;11.75;11.75;;;;;;;;5293892;27;8904;-68
2022/06/23 11:05:31;;;;;;;;;0.00;0.00;;;;;;;;5312236;27;8760;-68
2022/06/23 11:08:21;;;;;;;;;0.25;0.25;;;;;;;;5293694;27;8783;-68
2022/06/23 11:11:10;;;;;;;;;15.50;15.50;;;;;;;;5293620;27;8779;-68
2022/06/23 11:13:44;;;;;;;;;17.25;17.25;;;;;;;;5312368;27;8768;-68
2022/06/23 11:16:15;;;;;;;;;1.00;1.00;;;;;;;;5311965;27;8783;-69
2022/06/23 11:18:53;;;;;;;;;8.00;7.50;;;;;;;;5276434;27;8760;-69
2022/06/23 11:21:26;;;;;;;;;4.00;4.00;;;;;;;;5311873;27;8767;-69
2022/06/23 11:24:08;;;;;;;;;5.75;5.75;;;;;;;;5311711;27;8803;-69
2022/06/23 11:27:11;;;;;;;;;2.00;2.00;;;;;;;;5299993;27;8790;-67
2022/06/23 11:30:04;;;;;;;;;2.75;2.50;;;;;;;;5259893;27;8792;-69
2022/06/23 11:32:43;;;;;;;;;0.25;0.25;;;;;;;;5265115;27;8780;-71
2022/06/23 11:35:20;;;;;;;;;0.00;0.00;;;;;;;;5291301;27;8772;-70
2022/06/23 11:37:54;;;;;;;;;0.00;0.00;;;;;;;;5257332;27;9597;-70
2022/06/23 11:40:34;;;;;;;;;2.25;2.25;;;;;;;;5309579;27;8760;-69
2022/06/23 11:43:11;;;;;;;;;4.50;4.00;;;;;;;;5287560;27;8798;-71
2022/06/23 11:46:08;;;;;;;;;1.75;1.75;;;;;;;;5279160;27;8809;-69
2022/06/23 11:48:52;;;;;;;;;0.75;0.75;;;;;;;;5267827;28;8778;-69
2022/06/23 11:51:38;;;;;;;;;0.25;0.25;;;;;;;;5289667;28;9519;-68
2022/06/23 11:54:28;;;;;;;;;1.25;1.25;;;;;;;;5273126;28;8766;-70
2022/06/23 11:57:17;;;;;;;;;0.00;0.00;;;;;;;;5289653;28;8762;-69
2022/06/23 11:59:51;;;;;;;;;10.00;9.75;;;;;;;;5289378;28;8746;-69
2022/06/23 12:02:55;;;;;;;;;5.50;5.50;;;;;;;;5289250;28;8901;-70
2022/06/23 12:05:34;;;;;;;;;6.75;6.75;;;;;;;;5289407;28;8921;-69
2022/06/23 12:08:08;;;;;;;;;0.00;0.00;;;;;;;;5265062;28;8861;-69
2022/06/23 12:10:39;;;;;;;;;0.00;0.00;;;;;;;;5271233;28;9634;-69
2022/06/23 12:13:10;;;;;;;;;0.00;0.00;;;;;;;;5288420;28;8786;-69
2022/06/23 12:15:44;;;;;;;;;0.00;0.00;;;;;;;;5271353;28;8770;-69
2022/06/23 12:18:26;;;;;;;;;0.00;0.00;;;;;;;;5233251;28;8912;-69
2022/06/23 12:21:22;;;;;;;;;0.25;0.25;;;;;;;;5308733;27;8879;-68
2022/06/23 12:24:12;;;;;;;;;0.00;0.00;;;;;;;;5272798;27;8835;-69
2022/06/23 12:26:48;;;;;;;;;0.00;0.00;;;;;;;;5287582;27;9477;-70
2022/06/23 12:29:29;;;;;;;;;4.25;3.50;;;;;;;;5279610;28;8846;-69
2022/06/23 12:32:05;;;;;;;;;3.00;3.00;;;;;;;;5287421;28;8852;-70
2022/06/23 12:34:39;;;;;;;;;0.00;0.00;;;;;;;;5270973;28;8774;-69
2022/06/23 12:37:28;;;;;;;;;1.00;1.00;;;;;;;;5253780;28;8784;-70
2022/06/23 12:40:06;;;;;;;;;0.50;0.50;;;;;;;;5270100;28;8789;-70
2022/06/23 12:42:42;;;;;;;;;0.00;0.00;;;;;;;;5249537;28;9506;-70
2022/06/23 12:45:26;;;;;;;;;0.50;0.50;;;;;;;;5272734;28;8776;-69
2022/06/23 12:48:10;;;;;;;;;0.50;0.50;;;;;;;;5266348;28;8780;-69
2022/06/23 12:50:47;;;;;;;;;0.00;0.00;;;;;;;;5267277;28;8768;-70
2022/06/23 12:53:41;;;;;;;;;2.00;2.00;;;;;;;;5249816;28;8772;-69
2022/06/23 12:56:15;;;;;;;;;1.75;1.75;;;;;;;;5256876;27;8772;-70
2022/06/23 12:58:49;;;;;;;;;0.00;0.00;;;;;;;;5244035;28;8772;-69
2022/06/23 13:01:20;;;;;;;;;0.00;0.00;;;;;;;;5248808;28;8800;-69
2022/06/23 13:03:57;;;;;;;;;0.00;0.00;;;;;;;;5269859;28;8812;-72
2022/06/23 13:06:28;;;;;;;;;0.75;0.75;;;;;;;;5288300;28;8814;-70
2022/06/23 13:09:28;;;;;;;;;0.00;0.00;;;;;;;;5269898;28;8816;-70
2022/06/23 13:11:58;;;;;;;;;1.75;1.75;;;;;;;;5288825;28;8779;-69
2022/06/23 13:14:29;;;;;;;;;0.00;0.00;;;;;;;;5268091;28;8820;-70
2022/06/23 13:17:21;;;;;;;;;7.25;7.25;;;;;;;;5288387;28;10369;-68
2022/06/23 13:20:01;;;;;;;;;6.50;6.50;;;;;;;;5269480;28;8873;-68
2022/06/23 13:22:42;;;;;;;;;0.00;0.00;;;;;;;;5253013;28;8804;-69
2022/06/23 13:25:17;;;;;;;;;0.00;0.00;;;;;;;;5236843;28;8781;-68
2022/06/23 13:28:06;;;;;;;;;0.00;0.00;;;;;;;;5272499;28;9393;-70
2022/06/23 13:30:46;;;;;;;;;0.00;0.00;;;;;;;;5287932;28;8781;-69
2022/06/23 13:33:40;;;;;;;;;2.25;2.25;;;;;;;;5287998;28;8813;-69
2022/06/23 13:36:40;;;;;;;;;0.75;0.75;;;;;;;;5240620;28;8796;-70
2022/06/23 13:39:11;;;;;;;;;2.00;2.00;;;;;;;;5265834;28;8925;-69
2022/06/23 13:41:46;;;;;;;;;3.00;3.00;;;;;;;;5270142;28;8881;-69
2022/06/23 13:44:40;;;;;;;;;1.00;1.00;;;;;;;;5287311;28;8810;-70
2022/06/23 13:47:20;;;;;;;;;0.75;0.75;;;;;;;;5287398;28;9401;-71
2022/06/23 13:50:03;;;;;;;;;0.75;0.75;;;;;;;;5287543;28;8876;-69
2022/06/23 13:52:42;;;;;;;;;2.75;2.75;;;;;;;;5256356;28;8792;-70
2022/06/23 13:55:34;;;;;;;;;0.25;0.25;;;;;;;;5273624;28;9496;-71
2022/06/23 13:58:10;;;;;;;;;0.00;0.00;;;;;;;;5292171;28;8762;-69
2022/06/23 14:01:26;;;;;;;;;5.00;5.00;;;;;;;;5291818;28;8770;-69
2022/06/23 14:04:14;;;;;;;;;0.00;0.00;;;;;;;;5260806;27;8787;-68
2022/06/23 14:06:52;;;;;;;;;2.00;2.00;;;;;;;;5313021;27;8775;-71
2022/06/23 14:09:39;;;;;;;;;2.50;2.50;;;;;;;;5277462;27;8791;-71
2022/06/23 14:12:15;;;;;;;;;7.75;7.75;;;;;;;;5277520;27;8782;-69
2022/06/23 14:14:59;;;;;;;;;0.00;0.00;;;;;;;;5295493;27;8843;-69
2022/06/23 14:17:38;;;;;;;;;1.75;1.75;;;;;;;;5293903;27;8868;-70
2022/06/23 14:20:17;;;;;;;;;1.75;1.25;;;;;;;;5312362;27;8891;-70
2022/06/23 14:22:51;;;;;;;;;1.25;1.25;;;;;;;;5312526;27;8974;-69
2022/06/23 14:25:25;;;;;;;;;0.75;0.75;;;;;;;;5312504;27;8857;-69
2022/06/23 14:28:02;;;;;;;;;1.25;1.25;;;;;;;;5306200;27;8788;-69
2022/06/23 14:30:41;;;;;;;;;29.00;28.25;;;;;;;;5278042;28;8758;-70
2022/06/23 14:33:24;;;;;;;;;6.50;6.50;;;;;;;;5292087;27;8795;-69
2022/06/23 14:36:05;;;;;;;;;2.00;2.00;;;;;;;;5273156;28;9505;-70
2022/06/23 14:39:00;;;;;;;;;0.00;0.00;;;;;;;;5291215;28;8901;-70
2022/06/23 14:41:42;;;;;;;;;0.50;0.50;;;;;;;;5252425;28;9625;-70
2022/06/23 14:44:13;;;;;;;;;1.00;1.00;;;;;;;;5270978;28;8786;-70
2022/06/23 14:46:48;;;;;;;;;32.25;30.75;;;;;;;;5290818;28;8754;-70
2022/06/23 14:49:49;;;;;;;;;5.50;5.50;;;;;;;;5290601;28;8761;-70
2022/06/23 14:52:28;;;;;;;;;36.75;33.25;;;;;;;;5280007;28;8876;-69
2022/06/23 14:55:14;;;;;;;;;8.25;8.00;;;;;;;;5272729;28;9595;-71
2022/06/23 14:57:50;;;;;;;;;0.75;0.75;;;;;;;;5289193;28;8774;-70
2022/06/23 15:00:25;;;;;;;;;8.75;8.75;;;;;;;;5272480;28;8776;-70
2022/06/23 15:03:22;;;;;;;;;19.00;19.00;;;;;;;;5288957;28;8877;-72
2022/06/23 15:06:17;;;;;;;;;6.00;6.00;;;;;;;;5252832;28;8771;-70
2022/06/23 15:09:09;;;;;;;;;25.75;25.25;;;;;;;;5272126;28;8897;-70
2022/06/23 15:12:01;;;;;;;;;6.75;6.75;;;;;;;;5289143;28;8826;-70
2022/06/23 15:14:43;;;;;;;;;2.00;2.00;;;;;;;;5271758;28;8779;-70
2022/06/23 15:17:36;;;;;;;;;;;;;;;;;;;;;
2022/06/23 15:20:33;;;;;;;;;6.25;6.25;;;;;;;;5284760;28;8922;-72
2022/06/23 15:23:11;;;;;;;;;2.75;2.75;;;;;;;;5271913;28;8809;-71
2022/06/23 15:25:45;;;;;;;;;0.00;0.00;;;;;;;;5272369;28;8792;-70
2022/06/23 15:28:31;;;;;;;;;0.00;0.00;;;;;;;;5238397;28;8785;-70
2022/06/23 15:31:08;;;;;;;;;1.00;1.00;;;;;;;;5271469;27;8758;-73
2022/06/23 15:34:01;;;;;;;;;3.25;3.25;;;;;;;;5254673;28;8950;-70
2022/06/23 15:36:41;;;;;;;;;0.25;0.25;;;;;;;;5250708;28;8780;-70
2022/06/23 15:39:12;;;;;;;;;2.25;2.25;;;;;;;;5258194;28;8804;-70
2022/06/23 15:41:56;;;;;;;;;6.00;6.00;;;;;;;;5250320;28;8784;-71
2022/06/23 15:44:27;;;;;;;;;1.75;1.75;;;;;;;;5269364;28;9510;-71
2022/06/23 15:47:06;;;;;;;;;5.50;5.50;;;;;;;;5305201;27;8794;-70
2022/06/23 15:49:37;;;;;;;;;0.50;0.50;;;;;;;;5271547;28;8789;-71
2022/06/23 15:52:22;;;;;;;;;11.33;11.33;;;;;;;;5273778;27;8830;-71
2022/06/23 15:55:06;;;;;;;;;0.25;0.25;;;;;;;;5269067;27;11506;-69
2022/06/23 15:57:37;;;;;;;;;0.00;0.00;;;;;;;;5233603;28;8771;-69
2022/06/23 16:00:14;;;;;;;;;2.50;2.50;;;;;;;;5233492;28;8860;-70
2022/06/23 16:02:58;;;;;;;;;3.00;3.00;;;;;;;;5251008;28;9538;-69
2022/06/23 16:05:30;;;;;;;;;2.75;2.75;;;;;;;;5234025;28;8776;-69
2022/06/23 16:08:07;;;;;;;;;0.75;0.75;;;;;;;;5249863;28;8899;-70
2022/06/23 16:10:43;;;;;;;;;1.25;1.25;;;;;;;;5281083;27;8799;-70
2022/06/23 16:13:20;;;;;;;;;0.50;0.50;;;;;;;;5310624;27;8768;-70
2022/06/23 16:15:54;;;;;;;;;0.00;0.00;;;;;;;;5310710;27;8792;-69
2022/06/23 16:18:29;;;;;;;;;0.50;0.50;;;;;;;;5289668;27;8787;-71